Wetterdaten: Woche 06.12.04 - 12.12.04 (KW50)
Datum Zeit Temperatur Luftfeuchte Luftdruck Niederschlag Windrichtung Taupunkt Windchill Wind
06.12.2004 00:00 1,0 C 91 % 1029 hPa 0,0 l/m O -0,3 C 0,5 C 4,1 km/h (1 Bft)
06.12.2004 01:00 0,8 C 91 % 1028 hPa 0,0 l/m N -0,5 C 0,8 C 0,0 km/h (0 Bft)
06.12.2004 02:00 0,8 C 92 % 1028 hPa 0,0 l/m W -0,3 C 0,5 C 1,0 km/h (0 Bft)
06.12.2004 03:00 0,8 C 94 % 1028 hPa 0,0 l/m NW -0,1 C 0,2 C 4,2 km/h (1 Bft)
06.12.2004 04:00 0,8 C 92 % 1028 hPa 0,0 l/m N -0,3 C 0,5 C 2,4 km/h (1 Bft)
06.12.2004 05:00 0,8 C 90 % 1028 hPa 0,0 l/m N -0,6 C -1,0 C 8,6 km/h (2 Bft)
06.12.2004 06:00 0,6 C 90 % 1028 hPa 0,0 l/m NO -0,9 C -0,5 C 6,4 km/h (2 Bft)
06.12.2004 07:00 0,5 C 91 % 1028 hPa 0,0 l/m N-NO -0,8 C -0,5 C 7,0 km/h (2 Bft)
06.12.2004 08:00 0,5 C 92 % 1029 hPa 0,0 l/m N-NW -0,7 C -0,0 C 4,6 km/h (1 Bft)
06.12.2004 09:00 0,8 C 92 % 1029 hPa 0,0 l/m N-NW -0,4 C 0,6 C 3,1 km/h (1 Bft)
06.12.2004 10:00 1,5 C 88 % 1029 hPa 0,0 l/m N -0,2 C 0,1 C 7,9 km/h (2 Bft)
06.12.2004 11:00 2,4 C 84 % 1029 hPa 0,0 l/m N-NW -0,1 C -1,6 C 11,8 km/h (2 Bft)
06.12.2004 12:00 3,5 C 77 % 1028 hPa 0,0 l/m N -0,1 C -1,7 C 14,7 km/h (3 Bft)
06.12.2004 13:00 4,0 C 74 % 1028 hPa 0,0 l/m NO -0,2 C -1,9 C 16,2 km/h (3 Bft)
06.12.2004 14:00 3,7 C 76 % 1027 hPa 0,0 l/m N -0,1 C -1,0 C 13,4 km/h (3 Bft)
06.12.2004 15:00 3,2 C 79 % 1027 hPa 0,0 l/m N -0,1 C -1,0 C 13,1 km/h (3 Bft)
06.12.2004 16:00 2,6 C 83 % 1027 hPa 0,0 l/m N 0,1 C -1,4 C 13,1 km/h (3 Bft)
06.12.2004 17:00 2,4 C 83 % 1027 hPa 0,0 l/m N -0,1 C -1,7 C 12,7 km/h (3 Bft)
06.12.2004 18:00 2,2 C 84 % 1028 hPa 0,0 l/m N-NO -0,2 C -2,3 C 13,4 km/h (3 Bft)
06.12.2004 19:00 1,9 C 87 % 1028 hPa 0,0 l/m N -0,1 C -2,2 C 12,8 km/h (3 Bft)
06.12.2004 20:00 1,4 C 89 % 1028 hPa 0,0 l/m N-NW -0,2 C 0,6 C 5,0 km/h (1 Bft)
06.12.2004 21:00 1,0 C 92 % 1028 hPa 0,0 l/m N -0,2 C -0,1 C 7,7 km/h (2 Bft)
06.12.2004 22:00 0,7 C 95 % 1028 hPa 0,0 l/m N -0,0 C -0,6 C 7,5 km/h (2 Bft)
06.12.2004 23:00 0,4 C 96 % 1028 hPa 0,0 l/m N-NW -0,1 C -0,2 C 5,3 km/h (1 Bft)
07.12.2004 00:00 0,1 C 98 % 1028 hPa 0,0 l/m N -0,2 C -0,8 C 5,9 km/h (2 Bft)
07.12.2004 01:00 -0,3 C 99 % 1027 hPa 0,0 l/m NW -0,4 C -1,6 C 6,7 km/h (2 Bft)
07.12.2004 02:00 -0,8 C 100 % 1027 hPa 0,0 l/m NW -0,8 C -2,4 C 8,7 km/h (2 Bft)
07.12.2004 03:00 -0,9 C 100 % 1027 hPa 0,0 l/m NW -0,9 C -3,1 C 9,3 km/h (2 Bft)
07.12.2004 04:00 -1,0 C 100 % 1027 hPa 0,0 l/m N-NW -1,0 C -2,6 C 7,0 km/h (2 Bft)
07.12.2004 05:00 -1,2 C 100 % 1027 hPa 0,0 l/m N -1,2 C -2,4 C 7,8 km/h (2 Bft)
07.12.2004 06:00 -1,4 C 100 % 1027 hPa 0,0 l/m N -1,4 C -2,3 C 5,8 km/h (2 Bft)
07.12.2004 07:00 -1,5 C 100 % 1027 hPa 0,0 l/m NW -1,5 C -1,9 C 4,1 km/h (1 Bft)
07.12.2004 08:00 -1,5 C 100 % 1027 hPa 0,0 l/m N-NW -1,5 C -2,4 C 5,9 km/h (2 Bft)
07.12.2004 09:00 -1,4 C 100 % 1028 hPa 0,0 l/m N-NO -1,4 C -2,5 C 6,6 km/h (2 Bft)
07.12.2004 10:00 -1,2 C 100 % 1028 hPa 0,0 l/m NW -1,2 C -2,3 C 5,9 km/h (2 Bft)
07.12.2004 11:00 -1,1 C 100 % 1028 hPa 0,0 l/m NW -1,0 C -2,8 C 8,6 km/h (2 Bft)
07.12.2004 12:00 -0,9 C 100 % 1028 hPa 0,0 l/m NW -0,9 C -3,0 C 8,3 km/h (2 Bft)
07.12.2004 13:00 -0,5 C 99 % 1027 hPa 0,0 l/m N -0,7 C -2,0 C 7,7 km/h (2 Bft)
07.12.2004 14:00 -0,3 C 98 % 1027 hPa 0,0 l/m NO -0,6 C -0,6 C 4,9 km/h (1 Bft)
07.12.2004 15:00 -0,7 C 97 % 1027 hPa 0,0 l/m N-NW -1,1 C -1,4 C 4,0 km/h (1 Bft)
07.12.2004 16:00 -0,7 C 98 % 1027 hPa 0,0 l/m NW -1,0 C -0,8 C 0,9 km/h (0 Bft)
07.12.2004 17:00 -0,9 C 99 % 1027 hPa 0,0 l/m N -1,1 C -2,2 C 7,4 km/h (2 Bft)
07.12.2004 18:00 -1,1 C 100 % 1027 hPa 0,0 l/m N -1,1 C -3,8 C 10,1 km/h (2 Bft)
07.12.2004 19:00 -1,2 C 100 % 1027 hPa 0,0 l/m N -1,2 C -4,1 C 10,2 km/h (2 Bft)
07.12.2004 20:00 -1,3 C 100 % 1027 hPa 0,0 l/m N-NO -1,3 C -4,2 C 9,8 km/h (2 Bft)
07.12.2004 21:00 -1,3 C 100 % 1028 hPa 0,0 l/m N -1,3 C -4,1 C 9,9 km/h (2 Bft)
07.12.2004 22:00 -1,4 C 100 % 1028 hPa 0,0 l/m N -1,4 C -3,7 C 8,9 km/h (2 Bft)
07.12.2004 23:00 -1,4 C 100 % 1028 hPa 0,0 l/m N-NO -1,4 C -2,6 C 6,0 km/h (2 Bft)
08.12.2004 00:00 -1,6 C 100 % 1027 hPa 0,0 l/m N -1,6 C -2,7 C 6,0 km/h (2 Bft)
08.12.2004 01:00 -1,8 C 100 % 1027 hPa 0,0 l/m NO -1,8 C -3,1 C 7,2 km/h (2 Bft)
08.12.2004 02:00 -1,8 C 100 % 1027 hPa 0,0 l/m NW -1,8 C -4,6 C 10,2 km/h (2 Bft)
08.12.2004 03:00 -1,9 C 100 % 1027 hPa 0,0 l/m N -1,9 C -4,3 C 10,1 km/h (2 Bft)
08.12.2004 04:00 -1,9 C 100 % 1027 hPa 0,0 l/m N -1,9 C -5,5 C 10,9 km/h (2 Bft)
08.12.2004 05:00 -1,9 C 100 % 1027 hPa 0,0 l/m N -1,9 C -5,7 C 11,7 km/h (2 Bft)
08.12.2004 06:00 -1,9 C 100 % 1028 hPa 0,0 l/m N-NO -1,9 C -5,0 C 10,4 km/h (2 Bft)
08.12.2004 07:00 -1,9 C 100 % 1027 hPa 0,0 l/m N-NO -1,9 C -5,9 C 11,2 km/h (2 Bft)
08.12.2004 08:00 -1,9 C 100 % 1028 hPa 0,0 l/m N -1,9 C -4,8 C 10,5 km/h (2 Bft)
08.12.2004 09:00 -1,8 C 100 % 1028 hPa 0,0 l/m N -1,8 C -5,3 C 10,9 km/h (2 Bft)
08.12.2004 10:00 -1,5 C 99 % 1028 hPa 0,0 l/m N -1,6 C -5,9 C 12,7 km/h (3 Bft)
08.12.2004 11:00 -1,0 C 96 % 1028 hPa 0,0 l/m N -1,6 C -6,6 C 14,5 km/h (3 Bft)
08.12.2004 12:00 -0,7 C 92 % 1028 hPa 0,0 l/m N -1,8 C -5,2 C 12,3 km/h (3 Bft)
08.12.2004 13:00 -0,2 C 89 % 1027 hPa 0,0 l/m N -1,8 C -4,6 C 12,4 km/h (3 Bft)
08.12.2004 14:00 -0,1 C 89 % 1027 hPa 0,0 l/m N -1,7 C -4,7 C 12,6 km/h (3 Bft)
08.12.2004 15:00 -0,5 C 91 % 1027 hPa 0,0 l/m N -1,8 C -6,3 C 14,8 km/h (3 Bft)
08.12.2004 16:00 -0,9 C 92 % 1026 hPa 0,0 l/m N -2,0 C -7,9 C 17,1 km/h (3 Bft)
08.12.2004 17:00 -1,1 C 93 % 1027 hPa 0,0 l/m N -2,0 C -7,3 C 15,1 km/h (3 Bft)
08.12.2004 18:00 -1,2 C 95 % 1027 hPa 0,0 l/m N -1,9 C -7,9 C 15,6 km/h (3 Bft)
08.12.2004 19:00 -1,2 C 96 % 1027 hPa 0,0 l/m N -1,8 C -5,9 C 13,3 km/h (3 Bft)
08.12.2004 20:00 -1,5 C 97 % 1027 hPa 0,0 l/m N-NO -1,9 C -8,7 C 16,7 km/h (3 Bft)
08.12.2004 21:00 -1,5 C 96 % 1027 hPa 0,0 l/m NO -2,0 C -7,5 C 15,1 km/h (3 Bft)
08.12.2004 22:00 -1,5 C 97 % 1027 hPa 0,0 l/m N -1,9 C -8,0 C 15,7 km/h (3 Bft)
08.12.2004 23:00 -1,4 C 96 % 1027 hPa 0,0 l/m N -2,0 C -7,5 C 14,8 km/h (3 Bft)
09.12.2004 00:00 -1,4 C 96 % 1027 hPa 0,0 l/m N -1,9 C -8,5 C 17,2 km/h (3 Bft)
09.12.2004 01:00 -1,4 C 95 % 1026 hPa 0,0 l/m N -2,1 C -7,8 C 15,3 km/h (3 Bft)
09.12.2004 02:00 -1,5 C 96 % 1026 hPa 0,0 l/m N-NO -2,1 C -8,0 C 15,3 km/h (3 Bft)
09.12.2004 03:00 -1,6 C 97 % 1026 hPa 0,0 l/m N -2,0 C -7,1 C 13,7 km/h (3 Bft)
09.12.2004 04:00 -1,7 C 99 % 1025 hPa 0,0 l/m N -1,8 C -5,9 C 12,1 km/h (2 Bft)
09.12.2004 05:00 -1,7 C 99 % 1025 hPa 0,0 l/m N -1,9 C -6,8 C 13,1 km/h (3 Bft)
09.12.2004 06:00 -1,8 C 100 % 1025 hPa 0,0 l/m N -1,8 C -7,1 C 14,0 km/h (3 Bft)
09.12.2004 07:00 -1,9 C 100 % 1025 hPa 0,0 l/m N -1,9 C -7,0 C 12,7 km/h (3 Bft)
09.12.2004 08:00 -1,9 C 100 % 1025 hPa 0,0 l/m N -1,9 C -7,0 C 13,1 km/h (3 Bft)
09.12.2004 09:00 -2,0 C 100 % 1025 hPa 0,0 l/m N -2,0 C -8,8 C 15,7 km/h (3 Bft)
09.12.2004 10:00 -1,8 C 100 % 1025 hPa 0,0 l/m N -1,8 C -8,3 C 15,4 km/h (3 Bft)
09.12.2004 11:00 -1,5 C 99 % 1025 hPa 0,0 l/m N -1,7 C -7,0 C 13,8 km/h (3 Bft)
09.12.2004 12:00 -1,3 C 98 % 1025 hPa 0,0 l/m N -1,6 C -6,2 C 12,8 km/h (3 Bft)
09.12.2004 13:00 -1,1 C 96 % 1024 hPa 0,0 l/m N -1,7 C -7,3 C 15,0 km/h (3 Bft)
09.12.2004 14:00 -1,0 C 95 % 1023 hPa 0,0 l/m N -1,7 C -6,2 C 13,9 km/h (3 Bft)
09.12.2004 15:00 -1,1 C 96 % 1023 hPa 0,0 l/m N -1,6 C -6,1 C 13,3 km/h (3 Bft)
09.12.2004 16:00 -1,3 C 98 % 1023 hPa 0,0 l/m N -1,6 C -6,9 C 14,0 km/h (3 Bft)
09.12.2004 17:00 -1,3 C 99 % 1023 hPa 0,0 l/m N -1,4 C -4,4 C 10,6 km/h (2 Bft)
09.12.2004 18:00 -1,4 C 99 % 1024 hPa 0,0 l/m N-NW -1,5 C -5,3 C 11,7 km/h (2 Bft)
09.12.2004 19:00 -1,4 C 100 % 1023 hPa 0,0 l/m N -1,4 C -3,9 C 9,4 km/h (2 Bft)
09.12.2004 20:00 -1,5 C 99 % 1024 hPa 0,0 l/m NO -1,6 C -3,1 C 7,8 km/h (2 Bft)
09.12.2004 21:00 -1,6 C 99 % 1023 hPa 0,0 l/m NO -1,7 C -2,8 C 6,2 km/h (2 Bft)
09.12.2004 22:00 -1,7 C 100 % 1023 hPa 0,0 l/m NO -1,7 C -2,4 C 4,3 km/h (1 Bft)
09.12.2004 23:00 -1,9 C 100 % 1023 hPa 0,0 l/m N-NO -1,9 C -3,0 C 5,8 km/h (2 Bft)
10.12.2004 00:00 -2,0 C 100 % 1024 hPa 0,0 l/m N-NW -2,0 C -3,9 C 8,3 km/h (2 Bft)
10.12.2004 01:00 -2,2 C 100 % 1023 hPa 0,0 l/m NW -2,2 C -3,2 C 6,3 km/h (2 Bft)
10.12.2004 02:00 -2,3 C 100 % 1023 hPa 0,0 l/m NO -2,3 C -4,1 C 7,0 km/h (2 Bft)
10.12.2004 03:00 -2,6 C 100 % 1023 hPa 0,0 l/m O-NO -2,6 C -2,7 C 1,6 km/h (1 Bft)
10.12.2004 04:00 -2,8 C 100 % 1023 hPa 0,0 l/m N -2,8 C -2,8 C 0,0 km/h (0 Bft)
10.12.2004 05:00 -2,9 C 100 % 1023 hPa 0,0 l/m NO -2,9 C -3,4 C 2,3 km/h (1 Bft)
10.12.2004 06:00 -2,9 C 100 % 1023 hPa 0,0 l/m NO -2,9 C -2,9 C 0,5 km/h (0 Bft)
10.12.2004 07:00 -3,0 C 100 % 1024 hPa 0,0 l/m O-NO -3,0 C -3,3 C 2,8 km/h (1 Bft)
10.12.2004 08:00 -3,0 C 100 % 1024 hPa 0,0 l/m O-NO -3,0 C -3,1 C 0,8 km/h (0 Bft)
10.12.2004 09:00 -2,9 C 100 % 1024 hPa 0,0 l/m NO -2,9 C -3,0 C 2,9 km/h (1 Bft)
10.12.2004 10:00 -2,9 C 100 % 1024 hPa 0,0 l/m NO -2,9 C -3,1 C 2,6 km/h (1 Bft)
10.12.2004 11:00 -2,7 C 100 % 1024 hPa 0,0 l/m SO -2,7 C -2,7 C 0,1 km/h (0 Bft)
10.12.2004 12:00 -2,3 C 100 % 1024 hPa 0,0 l/m N-NO -2,3 C -2,3 C 0,9 km/h (0 Bft)
10.12.2004 13:00 -2,0 C 100 % 1023 hPa 0,0 l/m W-NW -2,0 C -2,3 C 4,1 km/h (1 Bft)
10.12.2004 14:00 -1,9 C 100 % 1023 hPa 0,0 l/m NO -1,9 C -2,3 C 4,6 km/h (1 Bft)
10.12.2004 15:00 -2,0 C 100 % 1024 hPa 0,0 l/m NO -2,0 C -3,8 C 8,1 km/h (2 Bft)
10.12.2004 16:00 -2,2 C 100 % 1024 hPa 0,0 l/m NW -2,2 C -3,0 C 4,2 km/h (1 Bft)
10.12.2004 17:00 -2,4 C 100 % 1024 hPa 0,0 l/m NW -2,4 C -2,7 C 3,0 km/h (1 Bft)
10.12.2004 18:00 -2,6 C 100 % 1024 hPa 0,0 l/m NO -2,6 C -2,9 C 3,5 km/h (1 Bft)
10.12.2004 19:00 -2,8 C 100 % 1024 hPa 0,0 l/m NO -2,8 C -2,8 C 0,8 km/h (0 Bft)
10.12.2004 20:00 -2,9 C 100 % 1024 hPa 0,0 l/m NO -2,9 C -3,8 C 4,9 km/h (1 Bft)
10.12.2004 21:00 -3,1 C 100 % 1025 hPa 0,0 l/m NO -3,1 C -3,6 C 3,3 km/h (1 Bft)
10.12.2004 22:00 -3,3 C 100 % 1025 hPa 0,0 l/m N -3,3 C -3,3 C 0,3 km/h (0 Bft)
10.12.2004 23:00 -3,4 C 100 % 1025 hPa 0,0 l/m N -3,4 C -3,4 C 0,0 km/h (0 Bft)
11.12.2004 00:00 -3,5 C 100 % 1025 hPa 0,0 l/m O-NO -3,5 C -3,6 C 1,3 km/h (1 Bft)
11.12.2004 01:00 -3,8 C 100 % 1025 hPa 0,0 l/m NO -3,8 C -3,9 C 2,6 km/h (1 Bft)
11.12.2004 02:00 -4,0 C 100 % 1025 hPa 0,0 l/m NO -4,0 C -4,1 C 0,9 km/h (0 Bft)
11.12.2004 03:00 -4,2 C 100 % 1025 hPa 0,0 l/m N -4,2 C -4,2 C 0,0 km/h (0 Bft)
11.12.2004 04:00 -4,1 C 100 % 1024 hPa 0,0 l/m N -4,1 C -4,1 C 0,0 km/h (0 Bft)
11.12.2004 05:00 -4,1 C 100 % 1024 hPa 0,0 l/m NW -4,1 C -4,1 C 0,7 km/h (0 Bft)
11.12.2004 06:00 -4,2 C 100 % 1025 hPa 0,0 l/m NO -4,2 C -4,3 C 1,8 km/h (1 Bft)
11.12.2004 07:00 -4,3 C 100 % 1025 hPa 0,0 l/m N -4,3 C -4,3 C 0,0 km/h (0 Bft)
11.12.2004 08:00 -4,5 C 100 % 1025 hPa 0,0 l/m N -4,5 C -4,5 C 0,0 km/h (0 Bft)
11.12.2004 09:00 -4,3 C 100 % 1025 hPa 0,0 l/m N -4,3 C -4,3 C 0,0 km/h (0 Bft)
11.12.2004 10:00 -4,1 C 100 % 1026 hPa 0,0 l/m N -4,1 C -4,1 C 0,0 km/h (0 Bft)
11.12.2004 11:00 -3,7 C 100 % 1026 hPa 0,0 l/m O-NO -3,7 C -3,7 C 0,6 km/h (0 Bft)
11.12.2004 12:00 -3,4 C 100 % 1025 hPa 0,0 l/m N-NW -3,4 C -3,4 C 0,7 km/h (0 Bft)
11.12.2004 13:00 -3,1 C 100 % 1025 hPa 0,0 l/m NO -3,1 C -3,2 C 0,5 km/h (0 Bft)
11.12.2004 14:00 -3,1 C 100 % 1025 hPa 0,0 l/m W-NW -3,1 C -3,1 C 0,3 km/h (0 Bft)
11.12.2004 15:00 -3,0 C 100 % 1025 hPa 0,0 l/m SW -3,0 C -3,0 C 1,6 km/h (1 Bft)
11.12.2004 16:00 -3,2 C 100 % 1026 hPa 0,0 l/m O-NO -3,2 C -3,2 C 0,2 km/h (0 Bft)
11.12.2004 17:00 -3,1 C 100 % 1026 hPa 0,0 l/m NO -3,1 C -3,2 C 0,4 km/h (0 Bft)
11.12.2004 18:00 -3,3 C 100 % 1026 hPa 0,0 l/m O-SO -3,3 C -3,5 C 4,0 km/h (1 Bft)
11.12.2004 19:00 -3,5 C 100 % 1026 hPa 0,0 l/m SW -3,5 C -3,5 C 1,5 km/h (1 Bft)
11.12.2004 20:00 -3,7 C 100 % 1026 hPa 0,0 l/m N -3,7 C -3,7 C 0,0 km/h (0 Bft)
11.12.2004 21:00 -3,6 C 100 % 1026 hPa 0,0 l/m N -3,6 C -3,6 C 0,0 km/h (0 Bft)
11.12.2004 22:00 -3,7 C 100 % 1026 hPa 0,0 l/m N -3,7 C -3,7 C 0,6 km/h (0 Bft)
11.12.2004 23:00 -4,0 C 100 % 1026 hPa 0,0 l/m N -4,0 C -4,0 C 0,7 km/h (0 Bft)
12.12.2004 00:00 -4,1 C 100 % 1026 hPa 0,0 l/m N -4,1 C -4,1 C 0,0 km/h (0 Bft)
12.12.2004 01:00 -4,2 C 100 % 1026 hPa 0,0 l/m N -4,2 C -4,2 C 0,0 km/h (0 Bft)
12.12.2004 02:00 -4,4 C 100 % 1026 hPa 0,0 l/m N -4,4 C -4,4 C 0,0 km/h (0 Bft)
12.12.2004 03:00 -4,7 C 100 % 1026 hPa 0,0 l/m N -4,7 C -4,7 C 0,0 km/h (0 Bft)
12.12.2004 04:00 -4,8 C 100 % 1027 hPa 0,0 l/m N -4,8 C -4,8 C 0,0 km/h (0 Bft)
12.12.2004 05:00 -4,9 C 100 % 1027 hPa 0,0 l/m N -4,9 C -4,9 C 0,0 km/h (0 Bft)
12.12.2004 06:00 -4,8 C 100 % 1027 hPa 0,0 l/m N -4,8 C -4,8 C 0,1 km/h (0 Bft)
12.12.2004 07:00 -4,9 C 100 % 1027 hPa 0,0 l/m N -4,9 C -4,9 C 0,0 km/h (0 Bft)
12.12.2004 08:00 -4,9 C 100 % 1028 hPa 0,0 l/m N -4,9 C -4,9 C 0,0 km/h (0 Bft)
12.12.2004 09:00 -4,7 C 100 % 1028 hPa 0,0 l/m N -4,7 C -4,7 C 0,0 km/h (0 Bft)
12.12.2004 10:00 -4,2 C 100 % 1028 hPa 0,0 l/m N -4,2 C -4,2 C 0,1 km/h (0 Bft)
12.12.2004 11:00 -3,3 C 100 % 1028 hPa 0,0 l/m NO -3,3 C -3,3 C 0,3 km/h (0 Bft)
12.12.2004 12:00 -2,7 C 100 % 1027 hPa 0,0 l/m NO -2,7 C -2,7 C 0,1 km/h (0 Bft)
12.12.2004 13:00 -2,4 C 99 % 1027 hPa 0,0 l/m N -2,5 C -2,4 C 0,0 km/h (0 Bft)
12.12.2004 14:00 -2,3 C 97 % 1027 hPa 0,0 l/m NO -2,8 C -2,5 C 2,1 km/h (1 Bft)
12.12.2004 15:00 -2,7 C 95 % 1027 hPa 0,0 l/m N-NW -3,4 C -2,7 C 1,1 km/h (1 Bft)
12.12.2004 16:00 -3,1 C 97 % 1027 hPa 0,0 l/m N -3,5 C -3,1 C 0,0 km/h (0 Bft)
12.12.2004 17:00 -3,4 C 98 % 1027 hPa 0,0 l/m N -3,6 C -3,4 C 0,0 km/h (0 Bft)
12.12.2004 18:00 -3,6 C 99 % 1027 hPa 0,0 l/m N -3,7 C -3,6 C 0,0 km/h (0 Bft)
12.12.2004 19:00 -3,6 C 100 % 1028 hPa 0,0 l/m N -3,6 C -3,6 C 0,0 km/h (0 Bft)
12.12.2004 20:00 -3,6 C 100 % 1028 hPa 0,0 l/m N -3,6 C -3,6 C 0,0 km/h (0 Bft)
12.12.2004 21:00 -3,7 C 100 % 1028 hPa 0,0 l/m N -3,7 C -3,7 C 0,0 km/h (0 Bft)
12.12.2004 22:00 -3,8 C 100 % 1028 hPa 0,0 l/m N -3,8 C -3,8 C 0,0 km/h (0 Bft)
12.12.2004 23:00 -4,0 C 100 % 1028 hPa 0,0 l/m N -4,0 C -4,0 C 0,0 km/h (0 Bft)
Min-Datum _ 12.12.04 06.12.04 09.12.04 - - 12.12.04 08.12.04 06.12.04
_ Min-Zeit 04:57 13:39 16:00 - - 04:57 20:18 00:05
Minimum _ -5,0 C 73 % 1023 hPa - - -5,0 C -12,9 C 0,0 km/h (0 Bft)
Max-Datum _ 06.12.04 07.12.04 06.12.04 06.12.04 - 06.12.04 06.12.04 09.12.04
_ Max-Zeit 12:42 01:44 00:00 00:00 - 12:40 13:03 00:58
Maximum _ 4,0 C 100 % 1029 hPa 0,0 l/m - 0,2 C 4,0 C 34,8 km/h
N (5 Bft)
Durchschnitt _ -1,8 C 97 % 1026 hPa #0,0 l/m N -2,2 C -3,7 C 6,3 km/h (2 Bft)

Durchschnitt Minimum Temp.-1,9 C
Durchschnitt Maximum Temp.-1,6 C